sensor_id;sensor_type;location;lat;lon;timestamp;pressure;altitude;pressure_sealevel;temperature;humidity
70314;BME280;71040;47.526;18.986;2024-02-21T00:03:05;100559.38;;;8.04;92.02
70314;BME280;71040;47.526;18.986;2024-02-21T00:08:05;100561.09;;;8.05;91.91
70314;BME280;71040;47.526;18.986;2024-02-21T00:13:06;100550.69;;;8.05;92.49
70314;BME280;71040;47.526;18.986;2024-02-21T00:18:16;100536.81;;;8.04;92.15
70314;BME280;71040;47.526;18.986;2024-02-21T00:23:18;100521.25;;;8.01;92.29
70314;BME280;71040;47.526;18.986;2024-02-21T00:28:28;100529.00;;;8.04;92.30
70314;BME280;71040;47.526;18.986;2024-02-21T00:33:28;100518.59;;;8.03;92.03
70314;BME280;71040;47.526;18.986;2024-02-21T00:38:28;100514.28;;;8.02;92.11
70314;BME280;71040;47.526;18.986;2024-02-21T00:43:29;100503.84;;;8.03;92.10
70314;BME280;71040;47.526;18.986;2024-02-21T00:48:29;100506.44;;;8.03;92.30
70314;BME280;71040;47.526;18.986;2024-02-21T00:53:32;100503.00;;;8.03;92.11
70314;BME280;71040;47.526;18.986;2024-02-21T00:58:32;100501.25;;;8.03;92.14
70314;BME280;71040;47.526;18.986;2024-02-21T01:03:35;100503.00;;;8.03;92.03
70314;BME280;71040;47.526;18.986;2024-02-21T01:08:35;100498.66;;;8.02;92.17
70314;BME280;71040;47.526;18.986;2024-02-21T01:13:40;100509.09;;;8.02;92.13
70314;BME280;71040;47.526;18.986;2024-02-21T01:18:43;100507.38;;;8.00;92.08
70314;BME280;71040;47.526;18.986;2024-02-21T01:23:43;100499.53;;;8.02;92.17
70314;BME280;71040;47.526;18.986;2024-02-21T01:28:44;100508.22;;;8.01;92.21
70314;BME280;71040;47.526;18.986;2024-02-21T01:33:44;100509.16;;;7.98;92.14
70314;BME280;71040;47.526;18.986;2024-02-21T01:38:45;100510.81;;;8.01;91.95
70314;BME280;71040;47.526;18.986;2024-02-21T01:43:47;100503.00;;;8.01;92.09
70314;BME280;71040;47.526;18.986;2024-02-21T01:48:48;100499.56;;;8.00;92.12
70314;BME280;71040;47.526;18.986;2024-02-21T01:53:51;100493.50;;;8.00;92.06
70314;BME280;71040;47.526;18.986;2024-02-21T01:58:55;100508.22;;;8.01;92.12
70314;BME280;71040;47.526;18.986;2024-02-21T02:03:55;100502.16;;;8.00;92.25
70314;BME280;71040;47.526;18.986;2024-02-21T02:08:57;100491.78;;;7.99;92.08
70314;BME280;71040;47.526;18.986;2024-02-21T02:13:57;100489.13;;;8.00;92.42
70314;BME280;71040;47.526;18.986;2024-02-21T02:18:58;100508.25;;;7.99;92.13
70314;BME280;71040;47.526;18.986;2024-02-21T02:23:59;100511.72;;;8.00;92.06
70314;BME280;71040;47.526;18.986;2024-02-21T02:29:01;100500.44;;;7.99;92.09
70314;BME280;71040;47.526;18.986;2024-02-21T02:34:04;100499.59;;;7.99;92.04
70314;BME280;71040;47.526;18.986;2024-02-21T02:39:07;100506.50;;;8.00;92.30
70314;BME280;71040;47.526;18.986;2024-02-21T02:44:08;100495.25;;;7.98;91.82
70314;BME280;71040;47.526;18.986;2024-02-21T02:49:08;100493.53;;;7.98;91.99
70314;BME280;71040;47.526;18.986;2024-02-21T02:54:11;100495.25;;;7.98;92.09
70314;BME280;71040;47.526;18.986;2024-02-21T02:59:14;100499.63;;;7.97;92.07
70314;BME280;71040;47.526;18.986;2024-02-21T03:04:14;100509.16;;;7.98;92.09
70314;BME280;71040;47.526;18.986;2024-02-21T03:09:17;100512.63;;;7.97;92.00
70314;BME280;71040;47.526;18.986;2024-02-21T03:14:18;100501.38;;;7.97;91.97
70314;BME280;71040;47.526;18.986;2024-02-21T03:19:18;100504.81;;;7.97;91.96
70314;BME280;71040;47.526;18.986;2024-02-21T03:24:21;100512.69;;;7.96;92.37
70314;BME280;71040;47.526;18.986;2024-02-21T03:29:25;100519.66;;;7.95;92.26
70314;BME280;71040;47.526;18.986;2024-02-21T03:34:28;100516.97;;;7.97;92.36
70314;BME280;71040;47.526;18.986;2024-02-21T03:39:33;100517.94;;;7.94;92.10
70314;BME280;71040;47.526;18.986;2024-02-21T03:44:36;100527.47;;;7.95;92.33
70314;BME280;71040;47.526;18.986;2024-02-21T03:49:41;100523.09;;;7.96;92.29
70314;BME280;71040;47.526;18.986;2024-02-21T03:54:42;100522.19;;;7.97;92.33
70314;BME280;71040;47.526;18.986;2024-02-21T03:59:43;100523.09;;;7.96;92.16
70314;BME280;71040;47.526;18.986;2024-02-21T04:04:46;100520.53;;;7.94;92.16
70314;BME280;71040;47.526;18.986;2024-02-21T04:09:50;100530.06;;;7.95;92.15
70314;BME280;71040;47.526;18.986;2024-02-21T04:14:50;100527.47;;;7.95;92.18
70314;BME280;71040;47.526;18.986;2024-02-21T04:20:01;100511.94;;;7.91;91.59
70314;BME280;71040;47.526;18.986;2024-02-21T04:25:05;100521.41;;;7.95;92.47
70314;BME280;71040;47.526;18.986;2024-02-21T04:30:09;100509.28;;;7.92;92.23
70314;BME280;71040;47.526;18.986;2024-02-21T04:35:09;100513.63;;;7.92;92.14
70314;BME280;71040;47.526;18.986;2024-02-21T04:40:12;100506.66;;;7.94;92.04
70314;BME280;71040;47.526;18.986;2024-02-21T04:45:19;100508.41;;;7.93;92.20
70314;BME280;71040;47.526;18.986;2024-02-21T04:50:22;100510.16;;;7.93;92.13
70314;BME280;71040;47.526;18.986;2024-02-21T04:55:25;100499.75;;;7.91;92.11
70314;BME280;71040;47.526;18.986;2024-02-21T05:00:25;100511.03;;;7.92;92.11
70314;BME280;71040;47.526;18.986;2024-02-21T05:05:26;100498.03;;;7.92;92.00
70314;BME280;71040;47.526;18.986;2024-02-21T05:10:28;100498.03;;;7.90;91.95
70314;BME280;71040;47.526;18.986;2024-02-21T05:15:31;100499.78;;;7.90;92.06
70314;BME280;71040;47.526;18.986;2024-02-21T05:20:34;100500.66;;;7.90;92.07
70314;BME280;71040;47.526;18.986;2024-02-21T05:25:37;100504.13;;;7.91;92.05
70314;BME280;71040;47.526;18.986;2024-02-21T05:30:40;100505.88;;;7.90;92.07
70314;BME280;71040;47.526;18.986;2024-02-21T05:35:41;100504.16;;;7.89;92.20
70314;BME280;71040;47.526;18.986;2024-02-21T05:40:41;100508.53;;;7.87;92.09
70314;BME280;71040;47.526;18.986;2024-02-21T05:45:42;100509.34;;;7.89;92.23
70314;BME280;71040;47.526;18.986;2024-02-21T05:50:42;100514.56;;;7.89;92.12
70314;BME280;71040;47.526;18.986;2024-02-21T05:55:43;100521.53;;;7.87;91.95
70314;BME280;71040;47.526;18.986;2024-02-21T06:00:48;100521.56;;;7.86;92.12
70314;BME280;71040;47.526;18.986;2024-02-21T06:05:48;100523.31;;;7.85;91.97
70314;BME280;71040;47.526;18.986;2024-02-21T06:10:49;100530.22;;;7.86;92.02
70314;BME280;71040;47.526;18.986;2024-02-21T06:15:52;100525.13;;;7.83;91.91
70314;BME280;71040;47.526;18.986;2024-02-21T06:20:53;100533.78;;;7.84;91.96
70314;BME280;71040;47.526;18.986;2024-02-21T06:25:53;100532.88;;;7.85;92.04
70314;BME280;71040;47.526;18.986;2024-02-21T06:30:56;100529.44;;;7.84;92.00
70314;BME280;71040;47.526;18.986;2024-02-21T06:35:56;100535.47;;;7.85;92.46
70314;BME280;71040;47.526;18.986;2024-02-21T06:40:59;100541.59;;;7.84;92.40
70314;BME280;71040;47.526;18.986;2024-02-21T06:46:00;100540.75;;;7.83;92.36
70314;BME280;71040;47.526;18.986;2024-02-21T06:51:04;100532.94;;;7.82;92.42
70314;BME280;71040;47.526;18.986;2024-02-21T06:56:07;100536.38;;;7.84;92.40
70314;BME280;71040;47.526;18.986;2024-02-21T07:01:10;100546.75;;;7.85;92.30
70314;BME280;71040;47.526;18.986;2024-02-21T07:06:10;100552.88;;;7.84;92.61
70314;BME280;71040;47.526;18.986;2024-02-21T07:11:13;100557.22;;;7.84;92.24
70314;BME280;71040;47.526;18.986;2024-02-21T07:16:16;100550.34;;;7.80;92.55
70314;BME280;71040;47.526;18.986;2024-02-21T07:21:16;100561.63;;;7.80;92.41
70314;BME280;71040;47.526;18.986;2024-02-21T07:26:17;100566.78;;;7.83;92.57
70314;BME280;71040;47.526;18.986;2024-02-21T07:31:17;100562.44;;;7.82;92.51
70314;BME280;71040;47.526;18.986;2024-02-21T07:36:29;100557.25;;;7.82;92.51
70314;BME280;71040;47.526;18.986;2024-02-21T07:41:30;100563.31;;;7.83;92.60
70314;BME280;71040;47.526;18.986;2024-02-21T07:46:41;100560.72;;;7.81;92.59
70314;BME280;71040;47.526;18.986;2024-02-21T07:51:41;100558.13;;;7.81;92.58
70314;BME280;71040;47.526;18.986;2024-02-21T07:56:44;100564.19;;;7.82;92.67
70314;BME280;71040;47.526;18.986;2024-02-21T08:01:44;100562.47;;;7.81;92.78
70314;BME280;71040;47.526;18.986;2024-02-21T08:06:45;100560.72;;;7.81;92.41
70314;BME280;71040;47.526;18.986;2024-02-21T08:11:51;100549.47;;;7.81;92.79
70314;BME280;71040;47.526;18.986;2024-02-21T08:16:51;100558.13;;;7.81;92.67
70314;BME280;71040;47.526;18.986;2024-02-21T08:21:55;100553.81;;;7.80;92.75
70314;BME280;71040;47.526;18.986;2024-02-21T08:26:56;100559.03;;;7.79;92.81
70314;BME280;71040;47.526;18.986;2024-02-21T08:31:56;100557.28;;;7.81;92.89
70314;BME280;71040;47.526;18.986;2024-02-21T08:36:59;100563.38;;;7.78;92.85
70314;BME280;71040;47.526;18.986;2024-02-21T08:42:00;100563.34;;;7.80;93.01
70314;BME280;71040;47.526;18.986;2024-02-21T08:47:00;100563.34;;;7.81;93.00
70314;BME280;71040;47.526;18.986;2024-02-21T08:52:04;100558.13;;;7.81;92.94
70314;BME280;71040;47.526;18.986;2024-02-21T08:57:06;100552.94;;;7.80;92.93
70314;BME280;71040;47.526;18.986;2024-02-21T09:02:09;100553.75;;;7.83;93.00
70314;BME280;71040;47.526;18.986;2024-02-21T09:07:10;100552.00;;;7.84;93.07
70314;BME280;71040;47.526;18.986;2024-02-21T09:12:11;100545.94;;;7.83;93.01
70314;BME280;71040;47.526;18.986;2024-02-21T09:17:11;100548.69;;;7.76;91.56
70314;BME280;71040;47.526;18.986;2024-02-21T09:22:12;100537.41;;;7.75;90.46
70314;BME280;71040;47.526;18.986;2024-02-21T09:27:15;100528.75;;;7.75;90.17
70314;BME280;71040;47.526;18.986;2024-02-21T09:32:15;100536.53;;;7.76;89.13
70314;BME280;71040;47.526;18.986;2024-02-21T09:37:15;100538.19;;;7.80;88.96
70314;BME280;71040;47.526;18.986;2024-02-21T09:42:19;100545.09;;;7.83;88.31
70314;BME280;71040;47.526;18.986;2024-02-21T09:47:27;100525.16;;;7.80;87.87
70314;BME280;71040;47.526;18.986;2024-02-21T09:52:37;100544.03;;;7.91;87.66
70314;BME280;71040;47.526;18.986;2024-02-21T09:57:40;100537.97;;;7.91;87.39
70314;BME280;71040;47.526;18.986;2024-02-21T10:02:42;100522.38;;;7.89;87.48
70314;BME280;71040;47.526;18.986;2024-02-21T10:07:43;100525.00;;;7.88;87.41
70314;BME280;71040;47.526;18.986;2024-02-21T10:12:53;100514.63;;;7.86;87.45
70314;BME280;71040;47.526;18.986;2024-02-21T10:18:04;100521.53;;;7.87;87.44
70314;BME280;71040;47.526;18.986;2024-02-21T10:23:09;100518.94;;;7.87;88.02
70314;BME280;71040;47.526;18.986;2024-02-21T10:28:16;100509.38;;;7.88;86.99
70314;BME280;71040;47.526;18.986;2024-02-21T10:33:17;100507.63;;;7.88;86.43
70314;BME280;71040;47.526;18.986;2024-02-21T10:38:20;100495.41;;;7.92;86.25
70314;BME280;71040;47.526;18.986;2024-02-21T10:43:21;100485.84;;;7.94;86.38
70314;BME280;71040;47.526;18.986;2024-02-21T10:48:34;100486.56;;;7.99;85.83
70314;BME280;71040;47.526;18.986;2024-02-21T10:59:17;100469.06;;;8.06;84.83
70314;BME280;71040;47.526;18.986;2024-02-21T11:04:18;100454.25;;;8.08;84.71
70314;BME280;71040;47.526;18.986;2024-02-21T11:09:32;100448.88;;;8.15;84.56
70314;BME280;71040;47.526;18.986;2024-02-21T11:14:33;100430.50;;;8.20;83.86
70314;BME280;71040;47.526;18.986;2024-02-21T11:19:37;100426.94;;;8.24;83.98
70314;BME280;71040;47.526;18.986;2024-02-21T11:24:37;100422.59;;;8.24;83.10
70314;BME280;71040;47.526;18.986;2024-02-21T11:35:06;100413.97;;;8.22;83.21
70314;BME280;71040;47.526;18.986;2024-02-21T11:40:09;100405.19;;;8.26;82.87
70314;BME280;71040;47.526;18.986;2024-02-21T11:45:10;100411.09;;;8.34;82.44
70314;BME280;71040;47.526;18.986;2024-02-21T11:50:12;100391.03;;;8.38;82.74
70314;BME280;71040;47.526;18.986;2024-02-21T11:55:12;100392.69;;;8.42;82.17
70314;BME280;71040;47.526;18.986;2024-02-21T12:00:17;100387.34;;;8.47;80.99
70314;BME280;71040;47.526;18.986;2024-02-21T12:05:27;100375.97;;;8.49;81.29
70314;BME280;71040;47.526;18.986;2024-02-21T12:10:29;100367.09;;;8.56;80.54
70314;BME280;71040;47.526;18.986;2024-02-21T12:15:36;100366.91;;;8.64;79.34
70314;BME280;71040;47.526;18.986;2024-02-21T12:20:38;100375.41;;;8.70;78.86
70314;BME280;71040;47.526;18.986;2024-02-21T12:25:41;100373.72;;;8.68;78.53
70314;BME280;71040;47.526;18.986;2024-02-21T12:30:41;100378.13;;;8.66;78.20
70314;BME280;71040;47.526;18.986;2024-02-21T12:35:47;100370.50;;;8.58;78.94
70314;BME280;71040;47.526;18.986;2024-02-21T12:40:49;100368.09;;;8.52;78.38
70314;BME280;71040;47.526;18.986;2024-02-21T12:45:50;100359.38;;;8.53;78.81
70314;BME280;71040;47.526;18.986;2024-02-21T12:50:51;100358.44;;;8.54;78.89
70314;BME280;71040;47.526;18.986;2024-02-21T12:55:51;100351.59;;;8.52;79.50
70314;BME280;71040;47.526;18.986;2024-02-21T13:00:54;100337.72;;;8.51;79.59
70314;BME280;71040;47.526;18.986;2024-02-21T13:05:57;100328.09;;;8.53;79.54
70314;BME280;71040;47.526;18.986;2024-02-21T13:10:59;100334.88;;;8.59;79.07
70314;BME280;71040;47.526;18.986;2024-02-21T13:15:59;100323.56;;;8.60;78.75
70314;BME280;71040;47.526;18.986;2024-02-21T13:21:00;100319.25;;;8.59;78.30
70314;BME280;71040;47.526;18.986;2024-02-21T13:26:01;100311.44;;;8.59;77.93
70314;BME280;71040;47.526;18.986;2024-02-21T13:31:03;100304.44;;;8.61;77.42
70314;BME280;71040;47.526;18.986;2024-02-21T13:36:04;100296.66;;;8.59;77.58
70314;BME280;71040;47.526;18.986;2024-02-21T13:41:07;100296.56;;;8.62;76.78
70314;BME280;71040;47.526;18.986;2024-02-21T13:46:09;100299.13;;;8.64;76.10
70314;BME280;71040;47.526;18.986;2024-02-21T13:51:11;100288.75;;;8.62;76.47
70314;BME280;71040;47.526;18.986;2024-02-21T13:56:16;100282.66;;;8.63;76.24
70314;BME280;71040;47.526;18.986;2024-02-21T14:01:17;100274.81;;;8.63;76.21
70314;BME280;71040;47.526;18.986;2024-02-21T14:06:22;100276.53;;;8.64;76.36
70314;BME280;71040;47.526;18.986;2024-02-21T14:11:22;100278.06;;;8.71;77.83
70314;BME280;71040;47.526;18.986;2024-02-21T14:16:23;100267.56;;;8.75;79.86
70314;BME280;71040;47.526;18.986;2024-02-21T14:21:26;100281.41;;;8.77;80.68
70314;BME280;71040;47.526;18.986;2024-02-21T14:26:28;100272.81;;;8.73;81.45
70314;BME280;71040;47.526;18.986;2024-02-21T14:31:34;100264.94;;;8.75;82.18
70314;BME280;71040;47.526;18.986;2024-02-21T14:36:34;100270.19;;;8.73;82.60
70314;BME280;71040;47.526;18.986;2024-02-21T14:41:39;100261.53;;;8.73;83.14
70314;BME280;71040;47.526;18.986;2024-02-21T14:46:40;100249.50;;;8.67;83.50
70314;BME280;71040;47.526;18.986;2024-02-21T14:51:40;100249.34;;;8.73;84.05
70314;BME280;71040;47.526;18.986;2024-02-21T14:56:45;100249.38;;;8.71;83.97
70314;BME280;71040;47.526;18.986;2024-02-21T15:01:46;100244.16;;;8.71;84.48
70314;BME280;71040;47.526;18.986;2024-02-21T15:06:49;100247.59;;;8.74;84.67
70314;BME280;71040;47.526;18.986;2024-02-21T15:11:49;100235.41;;;8.74;84.79
70314;BME280;71040;47.526;18.986;2024-02-21T15:16:52;100242.34;;;8.75;85.24
70314;BME280;71040;47.526;18.986;2024-02-21T15:21:52;100225.88;;;8.73;84.89
70314;BME280;71040;47.526;18.986;2024-02-21T15:26:53;100234.53;;;8.75;85.32
70314;BME280;71040;47.526;18.986;2024-02-21T15:31:54;100232.78;;;8.76;85.52
70314;BME280;71040;47.526;18.986;2024-02-21T15:36:54;100230.16;;;8.76;85.31
70314;BME280;71040;47.526;18.986;2024-02-21T15:41:54;100235.31;;;8.77;85.77
70314;BME280;71040;47.526;18.986;2024-02-21T15:46:58;100229.25;;;8.77;85.50
70314;BME280;71040;47.526;18.986;2024-02-21T15:52:01;100232.69;;;8.77;85.77
70314;BME280;71040;47.526;18.986;2024-02-21T15:57:02;100228.34;;;8.78;86.03
70314;BME280;71040;47.526;18.986;2024-02-21T16:02:07;100221.38;;;8.78;86.16
70314;BME280;71040;47.526;18.986;2024-02-21T16:07:07;100216.16;;;8.78;85.98
70314;BME280;71040;47.526;18.986;2024-02-21T16:12:13;100217.91;;;8.78;86.40
70314;BME280;71040;47.526;18.986;2024-02-21T16:17:14;100218.72;;;8.80;86.21
70314;BME280;71040;47.526;18.986;2024-02-21T16:22:15;100230.84;;;8.81;86.65
70314;BME280;71040;47.526;18.986;2024-02-21T16:27:15;100230.84;;;8.81;86.65
70314;BME280;71040;47.526;18.986;2024-02-21T16:32:18;100221.31;;;8.80;86.37
70314;BME280;71040;47.526;18.986;2024-02-21T16:37:21;100224.75;;;8.82;86.68
70314;BME280;71040;47.526;18.986;2024-02-21T16:42:24;100225.72;;;8.78;86.70
70314;BME280;71040;47.526;18.986;2024-02-21T16:47:24;100226.47;;;8.83;87.14
70314;BME280;71040;47.526;18.986;2024-02-21T16:52:25;100235.13;;;8.83;86.82
70314;BME280;71040;47.526;18.986;2024-02-21T16:57:26;100246.41;;;8.84;86.84
70314;BME280;71040;47.526;18.986;2024-02-21T17:02:27;100231.63;;;8.84;86.74
70314;BME280;71040;47.526;18.986;2024-02-21T17:07:29;100238.56;;;8.85;86.75
70314;BME280;71040;47.526;18.986;2024-02-21T17:12:30;100227.28;;;8.85;87.13
70314;BME280;71040;47.526;18.986;2024-02-21T17:17:30;100229.88;;;8.85;87.21
70314;BME280;71040;47.526;18.986;2024-02-21T17:22:33;100215.94;;;8.86;87.08
70314;BME280;71040;47.526;18.986;2024-02-21T17:27:34;100216.81;;;8.86;87.01
70314;BME280;71040;47.526;18.986;2024-02-21T17:32:35;100211.63;;;8.85;87.20
70314;BME280;71040;47.526;18.986;2024-02-21T17:37:38;100202.88;;;8.87;87.27
70314;BME280;71040;47.526;18.986;2024-02-21T17:42:40;100195.03;;;8.87;87.37
70314;BME280;71040;47.526;18.986;2024-02-21T17:47:49;100200.31;;;8.86;87.28
70314;BME280;71040;47.526;18.986;2024-02-21T17:52:51;100201.19;;;8.85;87.47
70314;BME280;71040;47.526;18.986;2024-02-21T17:57:52;100201.97;;;8.88;87.15
70314;BME280;71040;47.526;18.986;2024-02-21T18:02:54;100195.81;;;8.89;87.58
70314;BME280;71040;47.526;18.986;2024-02-21T18:07:55;100184.69;;;8.84;87.23
70314;BME280;71040;47.526;18.986;2024-02-21T18:12:58;100188.94;;;8.88;87.27
70314;BME280;71040;47.526;18.986;2024-02-21T18:18:03;100181.94;;;8.89;87.40
70314;BME280;71040;47.526;18.986;2024-02-21T18:23:04;100176.72;;;8.89;87.51
70314;BME280;71040;47.526;18.986;2024-02-21T18:28:04;100171.59;;;8.87;87.57
70314;BME280;71040;47.526;18.986;2024-02-21T18:33:05;100167.16;;;8.89;87.31
70314;BME280;71040;47.526;18.986;2024-02-21T18:38:05;100176.69;;;8.90;87.54
70314;BME280;71040;47.526;18.986;2024-02-21T18:43:08;100172.31;;;8.91;87.42
70314;BME280;71040;47.526;18.986;2024-02-21T18:48:12;100168.00;;;8.90;87.51
70314;BME280;71040;47.526;18.986;2024-02-21T18:53:14;100161.88;;;8.91;87.45
70314;BME280;71040;47.526;18.986;2024-02-21T18:58:20;100165.41;;;8.90;87.65
70314;BME280;71040;47.526;18.986;2024-02-21T19:03:20;100160.13;;;8.91;87.78
70314;BME280;71040;47.526;18.986;2024-02-21T19:08:20;100148.84;;;8.91;87.53
70314;BME280;71040;47.526;18.986;2024-02-21T19:13:23;100141.03;;;8.91;87.92
70314;BME280;71040;47.526;18.986;2024-02-21T19:18:23;100135.81;;;8.91;88.10
70314;BME280;71040;47.526;18.986;2024-02-21T19:23:24;100131.50;;;8.90;87.55
70314;BME280;71040;47.526;18.986;2024-02-21T19:28:24;100132.31;;;8.92;87.76
70314;BME280;71040;47.526;18.986;2024-02-21T19:33:27;100121.03;;;8.91;88.04
70314;BME280;71040;47.526;18.986;2024-02-21T19:38:30;100123.63;;;8.91;87.77
70314;BME280;71040;47.526;18.986;2024-02-21T19:43:34;100115.84;;;8.90;87.94
70314;BME280;71040;47.526;18.986;2024-02-21T19:48:37;100115.81;;;8.91;87.65
70314;BME280;71040;47.526;18.986;2024-02-21T19:53:37;100111.44;;;8.92;87.83
70314;BME280;71040;47.526;18.986;2024-02-21T19:58:40;100101.09;;;8.89;87.76
70314;BME280;71040;47.526;18.986;2024-02-21T20:03:42;100108.84;;;8.92;88.11
70314;BME280;71040;47.526;18.986;2024-02-21T20:08:44;100100.16;;;8.91;88.09
70314;BME280;71040;47.526;18.986;2024-02-21T20:13:44;100088.84;;;8.92;87.82
70314;BME280;71040;47.526;18.986;2024-02-21T20:18:57;100077.66;;;8.89;88.10
70314;BME280;71040;47.526;18.986;2024-02-21T20:24:00;100072.34;;;8.92;88.17
70314;BME280;71040;47.526;18.986;2024-02-21T20:29:10;100082.81;;;8.90;88.04
70314;BME280;71040;47.526;18.986;2024-02-21T20:34:14;100067.97;;;8.92;88.04
70314;BME280;71040;47.526;18.986;2024-02-21T20:39:16;100073.19;;;8.92;87.97
70314;BME280;71040;47.526;18.986;2024-02-21T20:44:18;100062.84;;;8.89;88.26
70314;BME280;71040;47.526;18.986;2024-02-21T20:49:19;100063.66;;;8.91;88.28
70314;BME280;71040;47.526;18.986;2024-02-21T20:54:19;100071.47;;;8.91;88.32
70314;BME280;71040;47.526;18.986;2024-02-21T20:59:22;100071.47;;;8.91;88.34
70314;BME280;71040;47.526;18.986;2024-02-21T21:04:25;100076.66;;;8.93;88.25
70314;BME280;71040;47.526;18.986;2024-02-21T21:09:26;100067.13;;;8.92;88.09
70314;BME280;71040;47.526;18.986;2024-02-21T21:14:26;100059.34;;;8.90;88.55
70314;BME280;71040;47.526;18.986;2024-02-21T21:19:30;100058.44;;;8.91;88.33
70314;BME280;71040;47.526;18.986;2024-02-21T21:24:30;100051.47;;;8.92;88.49
70314;BME280;71040;47.526;18.986;2024-02-21T21:29:31;100040.19;;;8.91;88.13
70314;BME280;71040;47.526;18.986;2024-02-21T21:34:35;100030.66;;;8.90;88.12
70314;BME280;71040;47.526;18.986;2024-02-21T21:39:38;100025.63;;;8.86;88.18
70314;BME280;71040;47.526;18.986;2024-02-21T21:44:41;100025.44;;;8.90;88.43
70314;BME280;71040;47.526;18.986;2024-02-21T21:49:42;100028.91;;;8.91;88.33
70314;BME280;71040;47.526;18.986;2024-02-21T21:54:43;100027.16;;;8.91;88.40
70314;BME280;71040;47.526;18.986;2024-02-21T21:59:45;100034.97;;;8.91;88.60
70314;BME280;71040;47.526;18.986;2024-02-21T22:04:46;100039.28;;;8.92;88.44
70314;BME280;71040;47.526;18.986;2024-02-21T22:09:46;100034.97;;;8.91;88.21
70314;BME280;71040;47.526;18.986;2024-02-21T22:14:47;100026.25;;;8.92;88.46
70314;BME280;71040;47.526;18.986;2024-02-21T22:19:47;100020.28;;;8.89;88.55
70314;BME280;71040;47.526;18.986;2024-02-21T22:24:52;100028.91;;;8.91;88.53
70314;BME280;71040;47.526;18.986;2024-02-21T22:29:53;100017.59;;;8.92;88.38
70314;BME280;71040;47.526;18.986;2024-02-21T22:34:57;100019.34;;;8.91;88.51
70314;BME280;71040;47.526;18.986;2024-02-21T22:39:58;100006.31;;;8.91;88.39
70314;BME280;71040;47.526;18.986;2024-02-21T22:45:01;100006.31;;;8.91;88.61
70314;BME280;71040;47.526;18.986;2024-02-21T22:50:04;100003.69;;;8.91;88.58
70314;BME280;71040;47.526;18.986;2024-02-21T22:55:07;100003.69;;;8.91;88.33
70314;BME280;71040;47.526;18.986;2024-02-21T23:00:12;99993.25;;;8.91;88.62
70314;BME280;71040;47.526;18.986;2024-02-21T23:05:16;99984.63;;;8.89;88.54
70314;BME280;71040;47.526;18.986;2024-02-21T23:10:16;99982.84;;;8.91;88.69
70314;BME280;71040;47.526;18.986;2024-02-21T23:15:17;99983.72;;;8.90;88.42
70314;BME280;71040;47.526;18.986;2024-02-21T23:20:19;99975.88;;;8.92;88.71
70314;BME280;71040;47.526;18.986;2024-02-21T23:25:22;99960.28;;;8.90;88.42
70314;BME280;71040;47.526;18.986;2024-02-21T23:30:24;99948.13;;;8.89;88.23
70314;BME280;71040;47.526;18.986;2024-02-21T23:35:25;99942.88;;;8.91;88.61
70314;BME280;71040;47.526;18.986;2024-02-21T23:40:25;99934.19;;;8.90;88.70
70314;BME280;71040;47.526;18.986;2024-02-21T23:45:26;99918.69;;;8.87;88.50
70314;BME280;71040;47.526;18.986;2024-02-21T23:50:26;99913.38;;;8.89;88.61
70314;BME280;71040;47.526;18.986;2024-02-21T23:55:27;99908.13;;;8.90;88.35
